»·PEaware :: N895PW KF70-KSBD

N895PW :: KF70-KSBD

FLIGHT INFORMATION

Flight Status: Arrived
Operator: Privately registered:
United States
More flights under this callsign
Pilot: Robert C. (26285)
Aircraft: AERMACCHI WARRIOR
(F260)
More flights by this aircraft type
Origin: KF70
Destination: KSBD San Bernardino Intl
United States
More flights between these airports :: More routes between these airports
Route: HDF
File this flight plan on PilotEdge
Remarks:
Altitude:
(Current/Filed)
3,500ft
Speed:
(Current/Filed)
152kts
Departed: 25-Sep-19 12:26 PM
Arrived: 25-Sep-19 01:15 PM
Distance/Time
Traveled:
Not Available
Distance/Time
To Go:
Arrived

Flight Plot

Page will automatically refresh every two minutes.

Flight plan parsing failed; only flown route is shown


Map Options




Map Legend


Flown Route
Filed Route
Departure Airport
Arrival Airport
Navaid (VOR, NDB)
Fix

Horizontal Profiles

Position Reports

Time Latitude Longitude Heading Altitude Ground
Speed
25-Sep-19 11:58 33.578531 -117.128406 103 1353ft 0kts
25-Sep-19 11:59 33.578531 -117.128406 103 1353ft 0kts
25-Sep-19 12:00 33.578531 -117.128406 103 1353ft 0kts
25-Sep-19 12:01 33.578531 -117.128406 103 1353ft 0kts
25-Sep-19 12:02 33.578531 -117.128406 103 1353ft 0kts
25-Sep-19 12:03 33.578531 -117.128406 103 1353ft 0kts
25-Sep-19 12:04 33.578531 -117.128406 103 1353ft 0kts
25-Sep-19 12:05 33.578531 -117.128406 103 1353ft 0kts
25-Sep-19 12:06 33.578531 -117.128406 103 1353ft 0kts
25-Sep-19 12:07 33.578531 -117.128406 103 1353ft 0kts
25-Sep-19 12:08 33.578531 -117.128406 103 1353ft 0kts
25-Sep-19 12:08 33.578531 -117.128406 103 1353ft 0kts
25-Sep-19 12:10 33.578531 -117.128406 103 1353ft 0kts
25-Sep-19 12:11 33.578531 -117.128406 103 1353ft 0kts
25-Sep-19 12:11 33.578531 -117.128406 103 1353ft 0kts
25-Sep-19 12:12 33.578531 -117.128406 103 1353ft 0kts
25-Sep-19 12:14 33.578531 -117.128406 103 1353ft 0kts
25-Sep-19 12:14 33.578531 -117.128406 102 1353ft 0kts
25-Sep-19 12:15 33.578531 -117.128406 102 1353ft 0kts
25-Sep-19 12:16 33.578531 -117.128406 102 1353ft 0kts
25-Sep-19 12:17 33.578531 -117.128406 102 1353ft 0kts
25-Sep-19 12:18 33.578530 -117.128404 101 1353ft 0kts
25-Sep-19 12:19 33.578295 -117.128193 191 1353ft 6kts
25-Sep-19 12:20 33.574154 -117.129292 193 1353ft 19kts
25-Sep-19 12:21 33.568512 -117.130780 192 1353ft 20kts
25-Sep-19 12:22 33.566319 -117.131174 114 1353ft 0kts
25-Sep-19 12:23 33.566319 -117.131174 114 1353ft 0kts
25-Sep-19 12:24 33.566736 -117.130458 1 1353ft 0kts
25-Sep-19 12:25 33.588210 -117.126072 3 1978ft 113kts
25-Sep-19 12:26 33.581113 -117.100837 187 2511ft 139kts
25-Sep-19 12:27 33.544216 -117.108779 197 2325ft 116kts
25-Sep-19 12:28 33.542541 -117.136989 346 1886ft 84kts
25-Sep-19 12:29 33.566211 -117.130588 11 1360ft 80kts
25-Sep-19 12:30 33.589520 -117.124843 22 1858ft 117kts
25-Sep-19 12:31 33.574400 -117.099996 182 2371ft 142kts
25-Sep-19 12:32 33.542060 -117.113472 247 2162ft 95kts
25-Sep-19 12:33 33.552849 -117.134216 12 1646ft 87kts
25-Sep-19 12:34 33.572991 -117.128807 11 1353ft 32kts
25-Sep-19 12:35 33.574622 -117.128965 234 1353ft 0kts
25-Sep-19 12:36 33.574722 -117.129534 8 1353ft 0kts
25-Sep-19 12:37 33.574722 -117.129534 8 1353ft 0kts
25-Sep-19 12:38 33.574722 -117.129534 8 1353ft 0kts
25-Sep-19 12:39 33.574722 -117.129534 8 1353ft 0kts
25-Sep-19 12:40 33.574722 -117.129534 8 1353ft 0kts
25-Sep-19 12:41 33.574722 -117.129534 8 1353ft 0kts
25-Sep-19 12:42 33.574722 -117.129534 8 1353ft 0kts
25-Sep-19 12:43 33.574722 -117.129534 8 1353ft 0kts
25-Sep-19 12:44 33.574722 -117.129534 8 1353ft 0kts
25-Sep-19 12:45 33.574722 -117.129534 8 1353ft 0kts
25-Sep-19 12:46 33.574722 -117.129534 8 1353ft 0kts
25-Sep-19 12:47 33.574722 -117.129534 8 1353ft 0kts
25-Sep-19 12:48 33.574722 -117.129534 8 1353ft 0kts
25-Sep-19 12:49 33.574826 -117.129307 111 1353ft 2kts
25-Sep-19 12:50 33.577043 -117.128556 12 1353ft 19kts
25-Sep-19 12:51 33.582154 -117.127208 9 1353ft 9kts
25-Sep-19 12:52 33.581991 -117.126420 190 1353ft 7kts
25-Sep-19 12:53 33.571679 -117.129146 189 1518ft 100kts
25-Sep-19 12:54 33.540906 -117.136438 207 2454ft 120kts
25-Sep-19 12:55 33.540239 -117.173431 311 2984ft 133kts
25-Sep-19 12:56 33.568958 -117.201304 321 2998ft 129kts
25-Sep-19 12:57 33.594228 -117.230207 312 3232ft 134kts
25-Sep-19 12:58 33.624857 -117.264315 350 3490ft 169kts
25-Sep-19 12:59 33.669351 -117.248206 22 3499ft 162kts
25-Sep-19 13:00 33.709194 -117.227938 22 3556ft 150kts
25-Sep-19 13:01 33.746259 -117.205249 29 3557ft 149kts
25-Sep-19 13:02 33.782169 -117.180214 28 3556ft 149kts
25-Sep-19 13:03 33.818013 -117.154960 28 3556ft 149kts
25-Sep-19 13:04 33.854328 -117.130646 28 3556ft 149kts
25-Sep-19 13:05 33.894572 -117.120757 4 3557ft 149kts
25-Sep-19 13:06 33.935429 -117.125716 0 3553ft 149kts
25-Sep-19 13:07 33.976875 -117.121602 9 3551ft 149kts
25-Sep-19 13:08 34.017789 -117.113120 9 3546ft 149kts
25-Sep-19 13:09 34.055862 -117.101066 55 3892ft 131kts
25-Sep-19 13:10 34.039049 -117.109230 299 3711ft 152kts
25-Sep-19 13:11 34.072180 -117.145325 314 3071ft 170kts
25-Sep-19 13:12 34.097663 -117.176521 310 2401ft 99kts
25-Sep-19 13:13 34.104113 -117.204938 250 1507ft 88kts
25-Sep-19 13:14 34.097142 -117.228680 247 1160ft 31kts
25-Sep-19 13:15 34.095903 -117.236097 327 1160ft 0kts
25-Sep-19 13:16 34.097864 -117.232427 70 1160ft 25kts
25-Sep-19 13:17 34.099763 -117.226017 68 1160ft 14kts
25-Sep-19 13:18 34.101404 -117.222684 256 1160ft 0kts
25-Sep-19 13:19 34.101403 -117.222686 249 1160ft 0kts
25-Sep-19 13:20 34.101403 -117.222686 250 1160ft 0kts
25-Sep-19 13:21 34.101403 -117.222686 250 1160ft 0kts
25-Sep-19 13:22 34.101403 -117.222686 250 1160ft 0kts

Navigation Log

Ident Type
Flight plan parsing failed, navigation log unavailable